createdAt,value
2018-01-23T16:53:08.806Z,82.44
2018-01-23T16:55:36.397Z,82.23
2018-01-23T16:58:04.013Z,81.69
2018-01-23T17:00:31.610Z,81.32
2018-01-23T17:02:59.146Z,80.43
2018-01-23T17:05:26.746Z,79.20
2018-01-23T17:07:54.294Z,77.77
2018-01-23T17:10:21.878Z,76.81
2018-01-23T17:12:49.471Z,76.10
2018-01-23T17:15:17.014Z,76.39
2018-01-23T17:17:44.553Z,76.70
2018-01-23T17:20:12.155Z,76.13
2018-01-23T17:22:39.734Z,74.33
2018-01-23T17:25:07.265Z,74.42
2018-01-23T17:27:34.845Z,74.32
2018-01-23T17:30:02.396Z,75.81
2018-01-23T17:32:29.930Z,77.10
2018-01-23T17:34:57.620Z,77.84
2018-01-23T17:37:25.157Z,77.91
2018-01-23T17:39:52.694Z,78.97
2018-01-23T17:42:20.303Z,79.17
2018-01-23T17:44:47.902Z,79.21
2018-01-23T17:47:15.486Z,79.44
2018-01-23T17:49:43.026Z,79.44
2018-01-23T17:52:10.573Z,79.22
2018-01-23T17:54:38.126Z,79.05
2018-01-23T17:57:05.665Z,78.52
2018-01-23T17:59:33.238Z,78.54
2018-01-23T18:02:00.774Z,78.52
2018-01-23T18:04:28.306Z,78.35
2018-01-23T18:06:55.850Z,78.40
2018-01-23T18:09:23.390Z,78.23
2018-01-23T18:11:50.965Z,78.50
2018-01-23T18:14:18.510Z,78.67
2018-01-23T18:16:46.059Z,78.66
2018-01-23T18:19:13.610Z,78.43
2018-01-23T18:21:41.149Z,78.21
2018-01-23T18:24:08.717Z,78.26
2018-01-23T18:26:36.250Z,78.17
2018-01-23T18:29:03.798Z,78.19
2018-01-23T18:31:31.342Z,78.23
2018-01-23T18:33:58.886Z,77.93
2018-01-23T18:36:26.490Z,77.58
2018-01-23T18:38:54.022Z,77.60
2018-01-23T18:41:21.566Z,77.28
2018-01-23T18:43:49.118Z,77.49
2018-01-23T18:46:16.667Z,78.00
2018-01-23T18:48:44.270Z,78.08
2018-01-23T18:51:11.813Z,78.05
2018-01-23T18:53:39.354Z,78.28
2018-01-23T18:56:06.905Z,78.25
2018-01-23T18:58:34.442Z,78.21
2018-01-23T19:01:02.019Z,78.22
2018-01-23T19:03:30.201Z,78.39
2018-01-23T19:05:57.734Z,78.64
2018-01-23T19:08:25.287Z,79.01
2018-01-23T19:10:52.824Z,79.35
2018-01-23T19:13:21.350Z,79.68
2018-01-23T19:15:48.942Z,79.87
2018-01-23T19:18:16.542Z,79.91
2018-01-23T19:20:44.102Z,80.10
2018-01-23T19:23:11.706Z,80.08
2018-01-23T19:25:39.584Z,80.09
2018-01-23T19:28:07.514Z,80.41
2018-01-23T19:30:35.178Z,80.68
2018-01-23T19:33:02.752Z,80.65
2018-01-23T19:35:30.292Z,80.61
2018-01-23T19:37:57.943Z,80.63
2018-01-23T19:40:25.555Z,80.71
2018-01-23T19:42:53.098Z,80.66
2018-01-23T19:45:20.647Z,80.78
2018-01-23T19:47:48.189Z,80.78
2018-01-23T19:50:15.834Z,80.37
2018-01-23T19:52:43.475Z,80.00
2018-01-23T19:55:11.039Z,80.98
2018-01-23T19:57:38.618Z,81.02
2018-01-23T20:00:06.165Z,80.65
2018-01-23T20:02:33.748Z,79.80
2018-01-23T20:05:01.286Z,77.99
2018-01-23T20:07:28.821Z,79.22
2018-01-23T20:09:56.435Z,79.49
2018-01-23T20:12:24.031Z,78.69
2018-01-23T20:14:51.622Z,78.24
2018-01-23T20:17:19.169Z,78.02
2018-01-23T20:19:46.762Z,78.80
2018-01-23T20:22:14.424Z,80.29
2018-01-23T20:24:41.964Z,80.89
2018-01-23T20:27:09.552Z,80.97
2018-01-23T20:29:37.082Z,80.96
2018-01-23T20:32:04.622Z,81.09
2018-01-23T20:34:32.344Z,81.23
2018-01-23T20:36:59.749Z,81.56
2018-01-23T20:39:27.339Z,81.62
2018-01-23T20:41:54.883Z,81.49
2018-01-23T20:44:22.422Z,81.30
2018-01-23T20:46:49.976Z,81.35
2018-01-23T20:49:17.513Z,81.36
2018-01-23T20:51:45.136Z,80.49
2018-01-23T20:54:12.666Z,79.05
2018-01-23T20:56:40.264Z,80.02
2018-01-23T20:59:07.806Z,81.37
2018-01-23T21:01:35.358Z,81.58
2018-01-23T21:04:03.003Z,81.82
2018-01-23T21:06:30.542Z,81.93
2018-01-23T21:08:58.142Z,81.60
2018-01-23T21:11:25.682Z,81.16
2018-01-23T21:13:53.218Z,80.69
2018-01-23T21:16:20.822Z,80.45
2018-01-23T21:18:48.350Z,80.08
2018-01-23T21:21:15.898Z,79.88
2018-01-23T21:23:43.522Z,79.68
2018-01-23T21:26:11.058Z,79.57
2018-01-23T21:28:38.648Z,79.71
2018-01-23T21:31:06.178Z,79.85
2018-01-23T21:33:33.713Z,80.21
2018-01-23T21:36:01.318Z,80.40
2018-01-23T21:38:28.851Z,80.93
2018-01-23T21:40:56.434Z,80.81
2018-01-23T21:43:24.022Z,80.44
2018-01-23T21:45:51.554Z,80.52
2018-01-23T21:48:19.102Z,80.96
2018-01-23T21:50:46.639Z,81.05
2018-01-23T21:53:14.278Z,81.15
2018-01-23T21:55:41.874Z,81.55
2018-01-23T21:58:09.471Z,81.82
2018-01-23T22:00:37.014Z,82.07
2018-01-23T22:03:04.607Z,82.23
2018-01-23T22:05:32.190Z,81.96
2018-01-23T22:07:59.725Z,81.65
2018-01-23T22:10:27.317Z,80.76
2018-01-23T22:12:54.922Z,80.64
2018-01-23T22:15:22.457Z,80.65
2018-01-23T22:17:50.096Z,80.45
2018-01-23T22:20:17.633Z,80.69
2018-01-23T22:22:45.226Z,81.15
2018-01-23T22:25:12.770Z,81.42
2018-01-23T22:27:40.310Z,81.45
2018-01-23T22:30:07.974Z,81.32
2018-01-23T22:32:35.566Z,81.32
2018-01-23T22:35:03.098Z,81.36
2018-01-23T22:37:30.710Z,81.20
2018-01-23T22:39:58.242Z,81.00
2018-01-23T22:42:25.886Z,80.68
2018-01-23T22:44:53.426Z,80.66
2018-01-23T22:47:20.961Z,80.31
2018-01-23T22:49:48.505Z,80.11
2018-01-23T22:52:16.038Z,79.92
2018-01-23T22:54:43.614Z,79.67
2018-01-23T22:57:11.150Z,79.68
2018-01-23T22:59:38.750Z,79.62
2018-01-23T23:02:06.354Z,79.59
2018-01-23T23:04:33.886Z,79.73
2018-01-23T23:07:01.465Z,79.75
2018-01-23T23:09:29.063Z,79.75
2018-01-23T23:11:56.663Z,79.87
2018-01-23T23:14:24.209Z,78.16
2018-01-23T23:16:51.737Z,78.63
2018-01-23T23:19:19.347Z,78.14
2018-01-23T23:21:46.886Z,78.25
2018-01-23T23:24:14.478Z,77.87
2018-01-23T23:26:42.111Z,78.02
2018-01-23T23:29:09.710Z,77.91
2018-01-23T23:31:37.285Z,78.08
2018-01-23T23:34:04.838Z,78.40
2018-01-23T23:36:32.370Z,78.33
2018-01-23T23:38:59.917Z,77.82
2018-01-23T23:41:27.445Z,78.28
2018-01-23T23:43:55.082Z,77.37
2018-01-23T23:46:22.614Z,77.44
2018-01-23T23:48:50.145Z,77.15
2018-01-23T23:51:17.686Z,77.42
2018-01-23T23:53:45.284Z,77.25
2018-01-23T23:56:12.927Z,77.24
2018-01-23T23:58:40.467Z,77.60
